sensor_id;sensor_type;location;lat;lon;timestamp;P1;durP1;ratioP1;P2;durP2;ratioP2
56477;SDS011;42382;53.210;5.772;2023-08-06T00:00:15;4.78;;;4.10;;
56477;SDS011;42382;53.210;5.772;2023-08-06T00:02:40;4.25;;;3.85;;
56477;SDS011;42382;53.210;5.772;2023-08-06T00:05:06;5.32;;;3.97;;
56477;SDS011;42382;53.210;5.772;2023-08-06T00:07:32;6.68;;;4.63;;
56477;SDS011;42382;53.210;5.772;2023-08-06T00:09:57;5.97;;;4.20;;
56477;SDS011;42382;53.210;5.772;2023-08-06T00:12:23;4.82;;;4.28;;
56477;SDS011;42382;53.210;5.772;2023-08-06T00:14:52;7.82;;;5.43;;
56477;SDS011;42382;53.210;5.772;2023-08-06T00:17:18;6.45;;;5.22;;
56477;SDS011;42382;53.210;5.772;2023-08-06T00:19:44;8.55;;;5.75;;
56477;SDS011;42382;53.210;5.772;2023-08-06T00:22:10;8.82;;;6.05;;
56477;SDS011;42382;53.210;5.772;2023-08-06T00:24:35;6.45;;;5.78;;
56477;SDS011;42382;53.210;5.772;2023-08-06T00:27:01;9.65;;;7.32;;
56477;SDS011;42382;53.210;5.772;2023-08-06T00:29:27;7.65;;;6.20;;
56477;SDS011;42382;53.210;5.772;2023-08-06T00:31:53;7.60;;;6.60;;
56477;SDS011;42382;53.210;5.772;2023-08-06T00:34:19;10.85;;;7.45;;
56477;SDS011;42382;53.210;5.772;2023-08-06T00:36:45;8.63;;;7.45;;
56477;SDS011;42382;53.210;5.772;2023-08-06T00:39:11;8.93;;;7.00;;
56477;SDS011;42382;53.210;5.772;2023-08-06T00:41:36;10.65;;;7.90;;
56477;SDS011;42382;53.210;5.772;2023-08-06T00:44:02;10.95;;;8.10;;
56477;SDS011;42382;53.210;5.772;2023-08-06T00:46:28;8.80;;;7.68;;
56477;SDS011;42382;53.210;5.772;2023-08-06T00:48:54;9.68;;;8.00;;
56477;SDS011;42382;53.210;5.772;2023-08-06T00:51:20;8.75;;;7.25;;
56477;SDS011;42382;53.210;5.772;2023-08-06T00:53:47;9.80;;;7.72;;
56477;SDS011;42382;53.210;5.772;2023-08-06T00:56:14;10.20;;;7.93;;
56477;SDS011;42382;53.210;5.772;2023-08-06T00:58:40;8.48;;;7.25;;
56477;SDS011;42382;53.210;5.772;2023-08-06T01:01:07;11.77;;;7.35;;
56477;SDS011;42382;53.210;5.772;2023-08-06T01:03:33;9.02;;;7.03;;
56477;SDS011;42382;53.210;5.772;2023-08-06T01:05:58;11.60;;;8.13;;
56477;SDS011;42382;53.210;5.772;2023-08-06T01:11:19;8.52;;;7.00;;
56477;SDS011;42382;53.210;5.772;2023-08-06T01:16:46;9.52;;;7.60;;
56477;SDS011;42382;53.210;5.772;2023-08-06T01:19:19;11.77;;;8.38;;
56477;SDS011;42382;53.210;5.772;2023-08-06T01:21:46;9.25;;;7.50;;
56477;SDS011;42382;53.210;5.772;2023-08-06T01:24:12;9.18;;;7.43;;
56477;SDS011;42382;53.210;5.772;2023-08-06T01:31:50;9.50;;;7.72;;
56477;SDS011;42382;53.210;5.772;2023-08-06T01:34:20;10.75;;;8.00;;
56477;SDS011;42382;53.210;5.772;2023-08-06T01:36:48;8.45;;;7.60;;
56477;SDS011;42382;53.210;5.772;2023-08-06T01:39:15;9.85;;;7.45;;
56477;SDS011;42382;53.210;5.772;2023-08-06T01:41:40;10.95;;;8.57;;
56477;SDS011;42382;53.210;5.772;2023-08-06T01:44:06;8.13;;;7.28;;
56477;SDS011;42382;53.210;5.772;2023-08-06T01:46:32;9.10;;;7.50;;
56477;SDS011;42382;53.210;5.772;2023-08-06T01:48:57;8.35;;;7.32;;
56477;SDS011;42382;53.210;5.772;2023-08-06T01:51:23;10.07;;;7.57;;
56477;SDS011;42382;53.210;5.772;2023-08-06T01:53:48;8.93;;;7.53;;
56477;SDS011;42382;53.210;5.772;2023-08-06T01:56:14;9.10;;;7.28;;
56477;SDS011;42382;53.210;5.772;2023-08-06T01:58:40;11.65;;;7.60;;
56477;SDS011;42382;53.210;5.772;2023-08-06T02:01:05;15.32;;;7.82;;
56477;SDS011;42382;53.210;5.772;2023-08-06T02:03:31;10.25;;;8.50;;
56477;SDS011;42382;53.210;5.772;2023-08-06T02:05:56;10.15;;;8.02;;
56477;SDS011;42382;53.210;5.772;2023-08-06T02:08:22;11.95;;;7.93;;
56477;SDS011;42382;53.210;5.772;2023-08-06T02:10:48;12.05;;;8.15;;
56477;SDS011;42382;53.210;5.772;2023-08-06T02:13:13;9.55;;;8.00;;
56477;SDS011;42382;53.210;5.772;2023-08-06T02:15:45;11.85;;;8.25;;
56477;SDS011;42382;53.210;5.772;2023-08-06T02:18:14;12.15;;;8.60;;
56477;SDS011;42382;53.210;5.772;2023-08-06T02:20:40;9.35;;;7.45;;
56477;SDS011;42382;53.210;5.772;2023-08-06T02:23:06;11.43;;;8.80;;
56477;SDS011;42382;53.210;5.772;2023-08-06T02:25:32;9.45;;;7.55;;
56477;SDS011;42382;53.210;5.772;2023-08-06T02:27:58;9.68;;;8.02;;
56477;SDS011;42382;53.210;5.772;2023-08-06T02:30:24;10.02;;;8.80;;
56477;SDS011;42382;53.210;5.772;2023-08-06T02:32:49;11.00;;;9.52;;
56477;SDS011;42382;53.210;5.772;2023-08-06T02:35:15;10.70;;;8.55;;
56477;SDS011;42382;53.210;5.772;2023-08-06T02:37:41;10.50;;;8.70;;
56477;SDS011;42382;53.210;5.772;2023-08-06T02:40:06;17.10;;;8.88;;
56477;SDS011;42382;53.210;5.772;2023-08-06T02:42:33;11.52;;;9.48;;
56477;SDS011;42382;53.210;5.772;2023-08-06T02:44:58;11.40;;;9.30;;
56477;SDS011;42382;53.210;5.772;2023-08-06T02:47:24;12.57;;;9.50;;
56477;SDS011;42382;53.210;5.772;2023-08-06T02:49:49;13.18;;;8.65;;
56477;SDS011;42382;53.210;5.772;2023-08-06T02:52:15;11.18;;;9.57;;
56477;SDS011;42382;53.210;5.772;2023-08-06T02:54:41;13.25;;;9.35;;
56477;SDS011;42382;53.210;5.772;2023-08-06T02:57:07;11.32;;;9.10;;
56477;SDS011;42382;53.210;5.772;2023-08-06T02:59:33;10.02;;;8.63;;
56477;SDS011;42382;53.210;5.772;2023-08-06T03:01:59;12.27;;;9.63;;
56477;SDS011;42382;53.210;5.772;2023-08-06T03:04:24;10.38;;;8.82;;
56477;SDS011;42382;53.210;5.772;2023-08-06T03:06:50;12.35;;;8.80;;
56477;SDS011;42382;53.210;5.772;2023-08-06T03:09:16;10.15;;;8.52;;
56477;SDS011;42382;53.210;5.772;2023-08-06T03:11:42;12.63;;;9.18;;
56477;SDS011;42382;53.210;5.772;2023-08-06T03:14:08;10.32;;;8.10;;
56477;SDS011;42382;53.210;5.772;2023-08-06T03:16:33;12.52;;;8.45;;
56477;SDS011;42382;53.210;5.772;2023-08-06T03:18:59;10.45;;;7.68;;
56477;SDS011;42382;53.210;5.772;2023-08-06T03:21:25;11.65;;;8.38;;
56477;SDS011;42382;53.210;5.772;2023-08-06T03:23:50;11.48;;;7.90;;
56477;SDS011;42382;53.210;5.772;2023-08-06T03:26:17;10.48;;;7.85;;
56477;SDS011;42382;53.210;5.772;2023-08-06T03:28:43;10.60;;;7.82;;
56477;SDS011;42382;53.210;5.772;2023-08-06T03:31:08;16.75;;;8.98;;
56477;SDS011;42382;53.210;5.772;2023-08-06T03:33:34;10.73;;;8.00;;
56477;SDS011;42382;53.210;5.772;2023-08-06T03:36:00;11.27;;;7.82;;
56477;SDS011;42382;53.210;5.772;2023-08-06T03:38:25;10.55;;;8.50;;
56477;SDS011;42382;53.210;5.772;2023-08-06T03:40:52;12.50;;;8.00;;
56477;SDS011;42382;53.210;5.772;2023-08-06T03:43:18;10.18;;;8.30;;
56477;SDS011;42382;53.210;5.772;2023-08-06T03:45:43;11.75;;;8.65;;
56477;SDS011;42382;53.210;5.772;2023-08-06T03:48:09;9.05;;;8.10;;
56477;SDS011;42382;53.210;5.772;2023-08-06T03:50:35;12.43;;;8.80;;
56477;SDS011;42382;53.210;5.772;2023-08-06T03:53:00;13.27;;;7.82;;
56477;SDS011;42382;53.210;5.772;2023-08-06T03:55:27;11.75;;;8.65;;
56477;SDS011;42382;53.210;5.772;2023-08-06T03:57:52;12.10;;;8.55;;
56477;SDS011;42382;53.210;5.772;2023-08-06T04:00:18;11.48;;;8.25;;
56477;SDS011;42382;53.210;5.772;2023-08-06T04:02:44;12.10;;;9.02;;
56477;SDS011;42382;53.210;5.772;2023-08-06T04:05:10;15.32;;;9.10;;
56477;SDS011;42382;53.210;5.772;2023-08-06T04:07:35;10.68;;;8.45;;
56477;SDS011;42382;53.210;5.772;2023-08-06T04:10:03;10.82;;;8.48;;
56477;SDS011;42382;53.210;5.772;2023-08-06T04:12:29;11.18;;;8.52;;
56477;SDS011;42382;53.210;5.772;2023-08-06T04:14:57;14.75;;;9.93;;
56477;SDS011;42382;53.210;5.772;2023-08-06T04:17:23;13.20;;;9.13;;
56477;SDS011;42382;53.210;5.772;2023-08-06T04:19:53;13.80;;;10.30;;
56477;SDS011;42382;53.210;5.772;2023-08-06T04:22:19;16.45;;;9.68;;
56477;SDS011;42382;53.210;5.772;2023-08-06T04:24:46;14.63;;;9.30;;
56477;SDS011;42382;53.210;5.772;2023-08-06T04:27:12;10.82;;;9.65;;
56477;SDS011;42382;53.210;5.772;2023-08-06T04:29:39;12.75;;;9.95;;
56477;SDS011;42382;53.210;5.772;2023-08-06T04:32:06;11.43;;;9.63;;
56477;SDS011;42382;53.210;5.772;2023-08-06T04:34:32;11.10;;;8.95;;
56477;SDS011;42382;53.210;5.772;2023-08-06T04:36:59;15.65;;;9.85;;
56477;SDS011;42382;53.210;5.772;2023-08-06T04:39:24;11.40;;;8.25;;
56477;SDS011;42382;53.210;5.772;2023-08-06T04:41:50;12.98;;;9.52;;
56477;SDS011;42382;53.210;5.772;2023-08-06T04:44:16;12.93;;;9.32;;
56477;SDS011;42382;53.210;5.772;2023-08-06T04:46:41;14.38;;;9.57;;
56477;SDS011;42382;53.210;5.772;2023-08-06T04:49:07;13.20;;;9.95;;
56477;SDS011;42382;53.210;5.772;2023-08-06T04:51:32;13.38;;;10.60;;
56477;SDS011;42382;53.210;5.772;2023-08-06T04:53:58;14.38;;;9.65;;
56477;SDS011;42382;53.210;5.772;2023-08-06T04:56:24;11.38;;;8.90;;
56477;SDS011;42382;53.210;5.772;2023-08-06T04:58:49;13.90;;;9.05;;
56477;SDS011;42382;53.210;5.772;2023-08-06T05:01:15;11.48;;;8.82;;
56477;SDS011;42382;53.210;5.772;2023-08-06T05:03:41;11.07;;;9.70;;
56477;SDS011;42382;53.210;5.772;2023-08-06T05:06:07;12.25;;;9.23;;
56477;SDS011;42382;53.210;5.772;2023-08-06T05:08:32;13.07;;;10.20;;
56477;SDS011;42382;53.210;5.772;2023-08-06T05:10:58;13.45;;;9.52;;
56477;SDS011;42382;53.210;5.772;2023-08-06T05:13:24;12.27;;;9.35;;
56477;SDS011;42382;53.210;5.772;2023-08-06T05:15:50;12.27;;;9.32;;
56477;SDS011;42382;53.210;5.772;2023-08-06T05:18:18;11.73;;;9.20;;
56477;SDS011;42382;53.210;5.772;2023-08-06T05:20:43;11.27;;;9.20;;
56477;SDS011;42382;53.210;5.772;2023-08-06T05:23:09;15.57;;;9.77;;
56477;SDS011;42382;53.210;5.772;2023-08-06T05:25:35;13.18;;;8.90;;
56477;SDS011;42382;53.210;5.772;2023-08-06T05:28:01;13.02;;;10.52;;
56477;SDS011;42382;53.210;5.772;2023-08-06T05:30:27;13.35;;;10.82;;
56477;SDS011;42382;53.210;5.772;2023-08-06T05:32:53;12.73;;;9.57;;
56477;SDS011;42382;53.210;5.772;2023-08-06T05:35:18;10.98;;;9.20;;
56477;SDS011;42382;53.210;5.772;2023-08-06T05:37:45;12.38;;;8.95;;
56477;SDS011;42382;53.210;5.772;2023-08-06T05:40:11;15.27;;;10.00;;
56477;SDS011;42382;53.210;5.772;2023-08-06T05:42:36;12.65;;;8.95;;
56477;SDS011;42382;53.210;5.772;2023-08-06T05:45:02;11.70;;;9.23;;
56477;SDS011;42382;53.210;5.772;2023-08-06T05:47:28;11.88;;;9.52;;
56477;SDS011;42382;53.210;5.772;2023-08-06T05:49:53;12.73;;;9.75;;
56477;SDS011;42382;53.210;5.772;2023-08-06T05:52:19;10.45;;;8.07;;
56477;SDS011;42382;53.210;5.772;2023-08-06T05:54:46;13.88;;;8.90;;
56477;SDS011;42382;53.210;5.772;2023-08-06T05:57:11;11.30;;;8.60;;
56477;SDS011;42382;53.210;5.772;2023-08-06T05:59:37;11.32;;;8.57;;
56477;SDS011;42382;53.210;5.772;2023-08-06T06:02:03;12.05;;;8.38;;
56477;SDS011;42382;53.210;5.772;2023-08-06T06:04:29;9.00;;;7.88;;
56477;SDS011;42382;53.210;5.772;2023-08-06T06:06:54;16.15;;;9.18;;
56477;SDS011;42382;53.210;5.772;2023-08-06T06:09:20;11.18;;;8.75;;
56477;SDS011;42382;53.210;5.772;2023-08-06T06:11:46;9.50;;;7.60;;
56477;SDS011;42382;53.210;5.772;2023-08-06T06:14:12;11.07;;;8.70;;
56477;SDS011;42382;53.210;5.772;2023-08-06T06:16:38;11.52;;;8.25;;
56477;SDS011;42382;53.210;5.772;2023-08-06T06:19:03;10.43;;;7.50;;
56477;SDS011;42382;53.210;5.772;2023-08-06T06:21:29;10.65;;;8.70;;
56477;SDS011;42382;53.210;5.772;2023-08-06T06:23:55;12.30;;;9.18;;
56477;SDS011;42382;53.210;5.772;2023-08-06T06:26:21;10.75;;;8.13;;
56477;SDS011;42382;53.210;5.772;2023-08-06T06:28:47;12.68;;;8.88;;
56477;SDS011;42382;53.210;5.772;2023-08-06T06:31:12;10.20;;;8.52;;
56477;SDS011;42382;53.210;5.772;2023-08-06T06:33:38;12.38;;;8.88;;
56477;SDS011;42382;53.210;5.772;2023-08-06T06:36:04;11.05;;;9.15;;
56477;SDS011;42382;53.210;5.772;2023-08-06T06:38:29;9.98;;;8.40;;
56477;SDS011;42382;53.210;5.772;2023-08-06T06:40:55;9.48;;;7.88;;
56477;SDS011;42382;53.210;5.772;2023-08-06T06:43:22;10.02;;;7.70;;
56477;SDS011;42382;53.210;5.772;2023-08-06T06:45:52;9.13;;;7.07;;
56477;SDS011;42382;53.210;5.772;2023-08-06T06:48:22;10.00;;;8.25;;
56477;SDS011;42382;53.210;5.772;2023-08-06T06:50:47;8.52;;;7.63;;
56477;SDS011;42382;53.210;5.772;2023-08-06T06:53:13;9.98;;;7.88;;
56477;SDS011;42382;53.210;5.772;2023-08-06T06:55:39;9.95;;;8.00;;
56477;SDS011;42382;53.210;5.772;2023-08-06T06:58:05;9.13;;;7.70;;
56477;SDS011;42382;53.210;5.772;2023-08-06T07:00:30;9.93;;;7.25;;
56477;SDS011;42382;53.210;5.772;2023-08-06T07:02:56;12.05;;;7.05;;
56477;SDS011;42382;53.210;5.772;2023-08-06T07:05:22;8.02;;;6.78;;
56477;SDS011;42382;53.210;5.772;2023-08-06T07:07:47;7.35;;;6.53;;
56477;SDS011;42382;53.210;5.772;2023-08-06T07:10:13;7.47;;;6.68;;
56477;SDS011;42382;53.210;5.772;2023-08-06T07:12:38;7.78;;;6.78;;
56477;SDS011;42382;53.210;5.772;2023-08-06T07:15:05;8.98;;;6.40;;
56477;SDS011;42382;53.210;5.772;2023-08-06T07:17:31;6.28;;;5.68;;
56477;SDS011;42382;53.210;5.772;2023-08-06T07:19:57;6.63;;;5.63;;
56477;SDS011;42382;53.210;5.772;2023-08-06T07:22:23;7.03;;;5.55;;
56477;SDS011;42382;53.210;5.772;2023-08-06T07:24:50;5.65;;;5.07;;
56477;SDS011;42382;53.210;5.772;2023-08-06T07:27:15;5.75;;;5.07;;
56477;SDS011;42382;53.210;5.772;2023-08-06T07:29:41;7.90;;;5.50;;
56477;SDS011;42382;53.210;5.772;2023-08-06T07:32:07;6.65;;;4.75;;
56477;SDS011;42382;53.210;5.772;2023-08-06T07:34:33;5.70;;;4.35;;
56477;SDS011;42382;53.210;5.772;2023-08-06T07:36:58;5.40;;;4.60;;
56477;SDS011;42382;53.210;5.772;2023-08-06T07:39:24;5.65;;;4.03;;
56477;SDS011;42382;53.210;5.772;2023-08-06T07:41:50;5.20;;;4.70;;
56477;SDS011;42382;53.210;5.772;2023-08-06T07:44:15;7.03;;;5.10;;
56477;SDS011;42382;53.210;5.772;2023-08-06T07:46:41;4.90;;;4.18;;
56477;SDS011;42382;53.210;5.772;2023-08-06T07:49:07;6.97;;;4.88;;
56477;SDS011;42382;53.210;5.772;2023-08-06T07:51:33;4.28;;;3.92;;
56477;SDS011;42382;53.210;5.772;2023-08-06T07:53:59;4.95;;;4.32;;
56477;SDS011;42382;53.210;5.772;2023-08-06T07:56:24;5.95;;;4.05;;
56477;SDS011;42382;53.210;5.772;2023-08-06T07:58:50;5.00;;;4.10;;
56477;SDS011;42382;53.210;5.772;2023-08-06T08:01:15;5.43;;;4.20;;
56477;SDS011;42382;53.210;5.772;2023-08-06T08:03:41;6.00;;;4.32;;
56477;SDS011;42382;53.210;5.772;2023-08-06T08:06:07;5.72;;;3.80;;
56477;SDS011;42382;53.210;5.772;2023-08-06T08:08:32;4.28;;;3.88;;
56477;SDS011;42382;53.210;5.772;2023-08-06T08:10:58;5.18;;;3.17;;
56477;SDS011;42382;53.210;5.772;2023-08-06T08:13:25;4.05;;;3.58;;
56477;SDS011;42382;53.210;5.772;2023-08-06T08:15:55;5.30;;;3.70;;
56477;SDS011;42382;53.210;5.772;2023-08-06T08:18:23;4.43;;;3.40;;
56477;SDS011;42382;53.210;5.772;2023-08-06T08:20:48;4.55;;;3.25;;
56477;SDS011;42382;53.210;5.772;2023-08-06T08:23:15;3.83;;;3.42;;
56477;SDS011;42382;53.210;5.772;2023-08-06T08:25:41;3.80;;;3.40;;
56477;SDS011;42382;53.210;5.772;2023-08-06T08:28:07;6.93;;;3.63;;
56477;SDS011;42382;53.210;5.772;2023-08-06T08:30:32;4.15;;;3.30;;
56477;SDS011;42382;53.210;5.772;2023-08-06T08:32:58;3.75;;;3.22;;
56477;SDS011;42382;53.210;5.772;2023-08-06T08:35:23;3.28;;;2.95;;
56477;SDS011;42382;53.210;5.772;2023-08-06T08:37:49;3.60;;;3.25;;
56477;SDS011;42382;53.210;5.772;2023-08-06T08:40:15;3.30;;;3.00;;
56477;SDS011;42382;53.210;5.772;2023-08-06T08:42:41;5.40;;;3.25;;
56477;SDS011;42382;53.210;5.772;2023-08-06T08:45:14;3.75;;;3.35;;
56477;SDS011;42382;53.210;5.772;2023-08-06T08:47:40;4.10;;;3.10;;
56477;SDS011;42382;53.210;5.772;2023-08-06T08:50:11;4.63;;;2.92;;
56477;SDS011;42382;53.210;5.772;2023-08-06T08:52:38;6.32;;;2.95;;
56477;SDS011;42382;53.210;5.772;2023-08-06T08:55:05;4.72;;;2.63;;
56477;SDS011;42382;53.210;5.772;2023-08-06T08:57:32;3.50;;;2.72;;
56477;SDS011;42382;53.210;5.772;2023-08-06T08:59:58;3.20;;;2.05;;
56477;SDS011;42382;53.210;5.772;2023-08-06T09:02:24;2.42;;;2.08;;
56477;SDS011;42382;53.210;5.772;2023-08-06T09:04:52;4.10;;;1.80;;
56477;SDS011;42382;53.210;5.772;2023-08-06T09:07:19;3.25;;;2.03;;
56477;SDS011;42382;53.210;5.772;2023-08-06T09:09:46;2.17;;;1.50;;
56477;SDS011;42382;53.210;5.772;2023-08-06T09:12:14;2.78;;;1.52;;
56477;SDS011;42382;53.210;5.772;2023-08-06T09:14:41;1.88;;;1.60;;
56477;SDS011;42382;53.210;5.772;2023-08-06T09:17:07;2.25;;;1.30;;
56477;SDS011;42382;53.210;5.772;2023-08-06T09:19:35;2.00;;;1.83;;
56477;SDS011;42382;53.210;5.772;2023-08-06T09:22:01;2.30;;;1.80;;
56477;SDS011;42382;53.210;5.772;2023-08-06T09:24:27;3.90;;;1.60;;
56477;SDS011;42382;53.210;5.772;2023-08-06T09:26:53;2.78;;;1.25;;
56477;SDS011;42382;53.210;5.772;2023-08-06T09:29:21;1.48;;;1.02;;
56477;SDS011;42382;53.210;5.772;2023-08-06T09:31:47;3.28;;;1.35;;
56477;SDS011;42382;53.210;5.772;2023-08-06T09:34:16;2.47;;;1.25;;
56477;SDS011;42382;53.210;5.772;2023-08-06T09:36:43;2.10;;;1.00;;
56477;SDS011;42382;53.210;5.772;2023-08-06T09:39:12;2.08;;;0.52;;
56477;SDS011;42382;53.210;5.772;2023-08-06T09:41:42;1.48;;;0.85;;
56477;SDS011;42382;53.210;5.772;2023-08-06T09:44:18;1.92;;;0.88;;
56477;SDS011;42382;53.210;5.772;2023-08-06T09:46:49;0.93;;;0.70;;
56477;SDS011;42382;53.210;5.772;2023-08-06T09:49:19;1.90;;;0.80;;
56477;SDS011;42382;53.210;5.772;2023-08-06T09:51:46;1.20;;;0.65;;
56477;SDS011;42382;53.210;5.772;2023-08-06T09:54:15;2.35;;;0.85;;
56477;SDS011;42382;53.210;5.772;2023-08-06T09:56:42;3.58;;;0.55;;
56477;SDS011;42382;53.210;5.772;2023-08-06T09:59:11;4.88;;;0.98;;
56477;SDS011;42382;53.210;5.772;2023-08-06T10:01:37;2.15;;;1.02;;
56477;SDS011;42382;53.210;5.772;2023-08-06T10:04:03;3.25;;;0.80;;
56477;SDS011;42382;53.210;5.772;2023-08-06T10:06:33;2.40;;;0.70;;
56477;SDS011;42382;53.210;5.772;2023-08-06T10:09:01;1.65;;;0.70;;
56477;SDS011;42382;53.210;5.772;2023-08-06T10:11:26;3.60;;;0.82;;
56477;SDS011;42382;53.210;5.772;2023-08-06T10:14:08;1.35;;;0.40;;
56477;SDS011;42382;53.210;5.772;2023-08-06T10:16:38;1.35;;;0.50;;
56477;SDS011;42382;53.210;5.772;2023-08-06T10:19:06;3.60;;;0.70;;
56477;SDS011;42382;53.210;5.772;2023-08-06T10:21:34;2.40;;;0.60;;
56477;SDS011;42382;53.210;5.772;2023-08-06T10:24:00;3.22;;;1.20;;
56477;SDS011;42382;53.210;5.772;2023-08-06T10:26:27;1.85;;;0.70;;
56477;SDS011;42382;53.210;5.772;2023-08-06T10:28:54;1.20;;;0.40;;
56477;SDS011;42382;53.210;5.772;2023-08-06T10:41:27;4.30;;;0.93;;
56477;SDS011;42382;53.210;5.772;2023-08-06T10:44:12;1.73;;;0.63;;
56477;SDS011;42382;53.210;5.772;2023-08-06T10:46:38;2.25;;;0.90;;
56477;SDS011;42382;53.210;5.772;2023-08-06T10:49:04;2.75;;;0.70;;
56477;SDS011;42382;53.210;5.772;2023-08-06T10:53:57;2.83;;;1.00;;
56477;SDS011;42382;53.210;5.772;2023-08-06T10:56:23;1.83;;;0.85;;
56477;SDS011;42382;53.210;5.772;2023-08-06T10:58:53;7.20;;;0.90;;
56477;SDS011;42382;53.210;5.772;2023-08-06T11:01:19;2.75;;;0.73;;
56477;SDS011;42382;53.210;5.772;2023-08-06T11:03:47;1.70;;;0.90;;
56477;SDS011;42382;53.210;5.772;2023-08-06T11:06:18;3.20;;;1.73;;
56477;SDS011;42382;53.210;5.772;2023-08-06T11:08:52;1.95;;;1.35;;
56477;SDS011;42382;53.210;5.772;2023-08-06T11:11:19;3.17;;;1.30;;
56477;SDS011;42382;53.210;5.772;2023-08-06T11:13:48;2.00;;;1.13;;
56477;SDS011;42382;53.210;5.772;2023-08-06T11:16:16;2.92;;;1.40;;
56477;SDS011;42382;53.210;5.772;2023-08-06T11:18:43;2.65;;;1.27;;
56477;SDS011;42382;53.210;5.772;2023-08-06T11:21:10;1.65;;;1.02;;
56477;SDS011;42382;53.210;5.772;2023-08-06T11:23:37;4.05;;;1.48;;
56477;SDS011;42382;53.210;5.772;2023-08-06T11:26:03;2.05;;;1.27;;
56477;SDS011;42382;53.210;5.772;2023-08-06T11:28:29;3.03;;;1.52;;
56477;SDS011;42382;53.210;5.772;2023-08-06T11:30:55;5.15;;;1.83;;
56477;SDS011;42382;53.210;5.772;2023-08-06T11:33:25;3.45;;;1.67;;
56477;SDS011;42382;53.210;5.772;2023-08-06T11:35:52;4.05;;;1.92;;
56477;SDS011;42382;53.210;5.772;2023-08-06T11:38:19;4.13;;;1.48;;
56477;SDS011;42382;53.210;5.772;2023-08-06T11:40:45;3.30;;;1.83;;
56477;SDS011;42382;53.210;5.772;2023-08-06T11:43:11;2.92;;;1.50;;
56477;SDS011;42382;53.210;5.772;2023-08-06T11:45:39;4.13;;;2.00;;
56477;SDS011;42382;53.210;5.772;2023-08-06T11:48:06;3.78;;;1.63;;
56477;SDS011;42382;53.210;5.772;2023-08-06T11:50:36;2.90;;;1.77;;
56477;SDS011;42382;53.210;5.772;2023-08-06T11:53:05;2.92;;;1.60;;
56477;SDS011;42382;53.210;5.772;2023-08-06T11:55:31;1.92;;;1.23;;
56477;SDS011;42382;53.210;5.772;2023-08-06T11:57:57;3.78;;;1.35;;
56477;SDS011;42382;53.210;5.772;2023-08-06T12:00:24;2.92;;;1.80;;
56477;SDS011;42382;53.210;5.772;2023-08-06T12:02:51;3.38;;;1.35;;
56477;SDS011;42382;53.210;5.772;2023-08-06T12:07:55;3.63;;;1.30;;
56477;SDS011;42382;53.210;5.772;2023-08-06T12:10:23;3.85;;;1.50;;
56477;SDS011;42382;53.210;5.772;2023-08-06T12:12:52;2.75;;;1.10;;
56477;SDS011;42382;53.210;5.772;2023-08-06T12:15:19;2.50;;;1.42;;
56477;SDS011;42382;53.210;5.772;2023-08-06T12:17:46;1.83;;;1.02;;
56477;SDS011;42382;53.210;5.772;2023-08-06T12:20:12;2.33;;;1.27;;
56477;SDS011;42382;53.210;5.772;2023-08-06T12:22:38;2.03;;;1.10;;
56477;SDS011;42382;53.210;5.772;2023-08-06T12:25:11;2.42;;;1.77;;
56477;SDS011;42382;53.210;5.772;2023-08-06T12:27:38;5.97;;;1.40;;
56477;SDS011;42382;53.210;5.772;2023-08-06T12:30:05;3.42;;;1.30;;
56477;SDS011;42382;53.210;5.772;2023-08-06T12:32:31;1.48;;;1.38;;
56477;SDS011;42382;53.210;5.772;2023-08-06T12:34:58;2.10;;;1.30;;
56477;SDS011;42382;53.210;5.772;2023-08-06T12:37:24;2.47;;;1.27;;
56477;SDS011;42382;53.210;5.772;2023-08-06T12:39:50;3.67;;;1.42;;
56477;SDS011;42382;53.210;5.772;2023-08-06T12:42:16;6.35;;;1.20;;
56477;SDS011;42382;53.210;5.772;2023-08-06T12:44:41;2.10;;;1.13;;
56477;SDS011;42382;53.210;5.772;2023-08-06T12:47:07;1.60;;;1.20;;
56477;SDS011;42382;53.210;5.772;2023-08-06T12:49:33;1.85;;;1.00;;
56477;SDS011;42382;53.210;5.772;2023-08-06T12:51:59;3.95;;;1.48;;
56477;SDS011;42382;53.210;5.772;2023-08-06T12:54:25;2.20;;;1.15;;
56477;SDS011;42382;53.210;5.772;2023-08-06T12:56:51;2.25;;;1.02;;
56477;SDS011;42382;53.210;5.772;2023-08-06T12:59:17;3.75;;;1.42;;
56477;SDS011;42382;53.210;5.772;2023-08-06T13:01:43;2.47;;;1.30;;
56477;SDS011;42382;53.210;5.772;2023-08-06T13:04:10;3.33;;;1.40;;
56477;SDS011;42382;53.210;5.772;2023-08-06T13:06:36;1.50;;;0.98;;
56477;SDS011;42382;53.210;5.772;2023-08-06T13:09:02;2.40;;;1.20;;
56477;SDS011;42382;53.210;5.772;2023-08-06T13:11:29;3.08;;;1.45;;
56477;SDS011;42382;53.210;5.772;2023-08-06T13:13:58;2.20;;;1.20;;
56477;SDS011;42382;53.210;5.772;2023-08-06T13:16:28;3.40;;;1.40;;
56477;SDS011;42382;53.210;5.772;2023-08-06T13:18:54;2.22;;;1.15;;
56477;SDS011;42382;53.210;5.772;2023-08-06T13:21:20;2.92;;;1.05;;
56477;SDS011;42382;53.210;5.772;2023-08-06T13:23:48;2.47;;;1.50;;
56477;SDS011;42382;53.210;5.772;2023-08-06T13:26:14;2.40;;;1.10;;
56477;SDS011;42382;53.210;5.772;2023-08-06T13:28:41;2.13;;;1.10;;
56477;SDS011;42382;53.210;5.772;2023-08-06T13:31:07;2.85;;;1.13;;
56477;SDS011;42382;53.210;5.772;2023-08-06T13:33:32;1.55;;;1.13;;
56477;SDS011;42382;53.210;5.772;2023-08-06T13:35:58;2.88;;;1.25;;
56477;SDS011;42382;53.210;5.772;2023-08-06T13:38:23;3.08;;;1.20;;
56477;SDS011;42382;53.210;5.772;2023-08-06T13:40:49;1.45;;;0.88;;
56477;SDS011;42382;53.210;5.772;2023-08-06T13:43:15;4.30;;;1.00;;
56477;SDS011;42382;53.210;5.772;2023-08-06T13:45:42;2.08;;;0.88;;
56477;SDS011;42382;53.210;5.772;2023-08-06T13:48:07;1.42;;;1.08;;
56477;SDS011;42382;53.210;5.772;2023-08-06T13:50:35;1.95;;;1.30;;
56477;SDS011;42382;53.210;5.772;2023-08-06T13:53:01;2.13;;;1.20;;
56477;SDS011;42382;53.210;5.772;2023-08-06T13:55:27;2.95;;;1.45;;
56477;SDS011;42382;53.210;5.772;2023-08-06T13:57:53;3.65;;;1.67;;
56477;SDS011;42382;53.210;5.772;2023-08-06T14:00:18;7.22;;;1.75;;
56477;SDS011;42382;53.210;5.772;2023-08-06T14:02:45;4.00;;;1.83;;
56477;SDS011;42382;53.210;5.772;2023-08-06T14:05:10;2.60;;;1.20;;
56477;SDS011;42382;53.210;5.772;2023-08-06T14:07:36;4.25;;;1.70;;
56477;SDS011;42382;53.210;5.772;2023-08-06T14:10:02;3.35;;;1.80;;
56477;SDS011;42382;53.210;5.772;2023-08-06T14:12:27;4.10;;;1.83;;
56477;SDS011;42382;53.210;5.772;2023-08-06T14:14:53;3.13;;;1.33;;
56477;SDS011;42382;53.210;5.772;2023-08-06T14:17:19;3.83;;;1.13;;
56477;SDS011;42382;53.210;5.772;2023-08-06T14:19:46;2.35;;;1.00;;
56477;SDS011;42382;53.210;5.772;2023-08-06T14:22:12;2.75;;;1.00;;
56477;SDS011;42382;53.210;5.772;2023-08-06T14:24:37;2.65;;;0.93;;
56477;SDS011;42382;53.210;5.772;2023-08-06T14:27:03;2.88;;;1.20;;
56477;SDS011;42382;53.210;5.772;2023-08-06T14:29:31;2.67;;;1.00;;
56477;SDS011;42382;53.210;5.772;2023-08-06T14:31:56;3.85;;;1.20;;
56477;SDS011;42382;53.210;5.772;2023-08-06T14:34:22;3.55;;;1.63;;
56477;SDS011;42382;53.210;5.772;2023-08-06T14:36:48;2.17;;;0.90;;
56477;SDS011;42382;53.210;5.772;2023-08-06T14:39:13;2.45;;;1.13;;
56477;SDS011;42382;53.210;5.772;2023-08-06T14:41:39;2.80;;;2.03;;
56477;SDS011;42382;53.210;5.772;2023-08-06T14:44:04;1.98;;;1.02;;
56477;SDS011;42382;53.210;5.772;2023-08-06T14:46:32;4.38;;;1.35;;
56477;SDS011;42382;53.210;5.772;2023-08-06T14:48:57;3.60;;;1.65;;
56477;SDS011;42382;53.210;5.772;2023-08-06T14:51:23;2.60;;;1.02;;
56477;SDS011;42382;53.210;5.772;2023-08-06T14:53:49;1.10;;;0.70;;
56477;SDS011;42382;53.210;5.772;2023-08-06T14:56:16;2.42;;;0.95;;
56477;SDS011;42382;53.210;5.772;2023-08-06T14:58:41;2.78;;;1.10;;
56477;SDS011;42382;53.210;5.772;2023-08-06T15:01:07;2.92;;;0.80;;
56477;SDS011;42382;53.210;5.772;2023-08-06T15:03:33;2.55;;;0.70;;